sensor_id;sensor_type;location;lat;lon;timestamp;P1;durP1;ratioP1;P2;durP2;ratioP2
25481;SDS011;13395;50.752;4.268;2023-01-29T00:01:53;68.60;;;28.50;;
25481;SDS011;13395;50.752;4.268;2023-01-29T00:04:19;62.97;;;29.67;;
25481;SDS011;13395;50.752;4.268;2023-01-29T00:06:45;70.18;;;28.42;;
25481;SDS011;13395;50.752;4.268;2023-01-29T00:09:11;63.13;;;28.58;;
25481;SDS011;13395;50.752;4.268;2023-01-29T00:11:37;67.40;;;29.80;;
25481;SDS011;13395;50.752;4.268;2023-01-29T00:14:03;70.57;;;30.77;;
25481;SDS011;13395;50.752;4.268;2023-01-29T00:16:29;70.38;;;29.60;;
25481;SDS011;13395;50.752;4.268;2023-01-29T00:18:54;71.00;;;30.77;;
25481;SDS011;13395;50.752;4.268;2023-01-29T00:21:20;72.68;;;32.05;;
25481;SDS011;13395;50.752;4.268;2023-01-29T00:23:47;74.35;;;32.65;;
25481;SDS011;13395;50.752;4.268;2023-01-29T00:26:13;81.38;;;34.28;;
25481;SDS011;13395;50.752;4.268;2023-01-29T00:28:39;76.07;;;32.85;;
25481;SDS011;13395;50.752;4.268;2023-01-29T00:31:08;73.85;;;32.58;;
25481;SDS011;13395;50.752;4.268;2023-01-29T00:33:35;79.55;;;33.75;;
25481;SDS011;13395;50.752;4.268;2023-01-29T00:36:02;79.35;;;35.40;;
25481;SDS011;13395;50.752;4.268;2023-01-29T00:38:29;75.40;;;33.45;;
25481;SDS011;13395;50.752;4.268;2023-01-29T00:40:54;74.70;;;34.17;;
25481;SDS011;13395;50.752;4.268;2023-01-29T00:43:38;76.80;;;33.58;;
25481;SDS011;13395;50.752;4.268;2023-01-29T00:46:22;77.85;;;32.33;;
25481;SDS011;13395;50.752;4.268;2023-01-29T00:48:48;68.68;;;31.38;;
25481;SDS011;13395;50.752;4.268;2023-01-29T00:51:13;62.15;;;29.73;;
25481;SDS011;13395;50.752;4.268;2023-01-29T00:53:39;70.25;;;30.65;;
25481;SDS011;13395;50.752;4.268;2023-01-29T00:56:05;80.80;;;31.80;;
25481;SDS011;13395;50.752;4.268;2023-01-29T00:58:30;76.40;;;31.48;;
25481;SDS011;13395;50.752;4.268;2023-01-29T01:00:58;63.20;;;28.70;;
25481;SDS011;13395;50.752;4.268;2023-01-29T01:03:26;72.43;;;30.23;;
25481;SDS011;13395;50.752;4.268;2023-01-29T01:06:05;74.72;;;32.47;;
25481;SDS011;13395;50.752;4.268;2023-01-29T01:08:32;73.35;;;30.73;;
25481;SDS011;13395;50.752;4.268;2023-01-29T01:11:16;72.82;;;32.03;;
25481;SDS011;13395;50.752;4.268;2023-01-29T01:13:42;75.90;;;31.20;;
25481;SDS011;13395;50.752;4.268;2023-01-29T01:16:08;74.57;;;33.60;;
25481;SDS011;13395;50.752;4.268;2023-01-29T01:18:38;78.32;;;34.25;;
25481;SDS011;13395;50.752;4.268;2023-01-29T01:21:03;76.07;;;31.45;;
25481;SDS011;13395;50.752;4.268;2023-01-29T01:23:29;78.35;;;33.17;;
25481;SDS011;13395;50.752;4.268;2023-01-29T01:25:55;74.60;;;33.50;;
25481;SDS011;13395;50.752;4.268;2023-01-29T01:28:21;75.32;;;31.48;;
25481;SDS011;13395;50.752;4.268;2023-01-29T01:30:46;78.60;;;32.78;;
25481;SDS011;13395;50.752;4.268;2023-01-29T01:33:12;80.97;;;32.13;;
25481;SDS011;13395;50.752;4.268;2023-01-29T01:35:38;75.05;;;31.80;;
25481;SDS011;13395;50.752;4.268;2023-01-29T01:38:05;74.40;;;31.15;;
25481;SDS011;13395;50.752;4.268;2023-01-29T01:40:30;69.93;;;28.90;;
25481;SDS011;13395;50.752;4.268;2023-01-29T01:42:57;67.47;;;29.70;;
25481;SDS011;13395;50.752;4.268;2023-01-29T01:47:54;73.25;;;29.45;;
25481;SDS011;13395;50.752;4.268;2023-01-29T01:51:03;76.97;;;29.17;;
25481;SDS011;13395;50.752;4.268;2023-01-29T01:53:14;69.65;;;28.30;;
25481;SDS011;13395;50.752;4.268;2023-01-29T01:55:51;65.10;;;27.40;;
25481;SDS011;13395;50.752;4.268;2023-01-29T01:58:22;76.90;;;30.20;;
25481;SDS011;13395;50.752;4.268;2023-01-29T02:00:51;73.00;;;30.50;;
25481;SDS011;13395;50.752;4.268;2023-01-29T02:03:18;73.95;;;29.95;;
25481;SDS011;13395;50.752;4.268;2023-01-29T02:06:05;64.60;;;28.83;;
25481;SDS011;13395;50.752;4.268;2023-01-29T02:08:52;73.22;;;29.67;;
25481;SDS011;13395;50.752;4.268;2023-01-29T02:11:42;71.35;;;30.65;;
25481;SDS011;13395;50.752;4.268;2023-01-29T02:14:08;71.53;;;29.88;;
25481;SDS011;13395;50.752;4.268;2023-01-29T02:16:35;67.18;;;29.95;;
25481;SDS011;13395;50.752;4.268;2023-01-29T02:19:02;77.13;;;32.58;;
25481;SDS011;13395;50.752;4.268;2023-01-29T02:21:49;80.20;;;31.23;;
25481;SDS011;13395;50.752;4.268;2023-01-29T02:30:20;73.93;;;33.78;;
25481;SDS011;13395;50.752;4.268;2023-01-29T02:32:58;74.55;;;31.70;;
25481;SDS011;13395;50.752;4.268;2023-01-29T02:36:16;74.38;;;33.03;;
25481;SDS011;13395;50.752;4.268;2023-01-29T02:40:55;78.90;;;32.20;;
25481;SDS011;13395;50.752;4.268;2023-01-29T02:46:20;80.50;;;33.20;;
25481;SDS011;13395;50.752;4.268;2023-01-29T02:49:05;83.93;;;33.55;;
25481;SDS011;13395;50.752;4.268;2023-01-29T02:57:22;75.35;;;32.70;;
25481;SDS011;13395;50.752;4.268;2023-01-29T03:02:42;73.38;;;32.58;;
25481;SDS011;13395;50.752;4.268;2023-01-29T03:05:13;78.35;;;32.35;;
25481;SDS011;13395;50.752;4.268;2023-01-29T03:07:45;70.45;;;31.60;;
25481;SDS011;13395;50.752;4.268;2023-01-29T03:10:26;73.32;;;32.03;;
25481;SDS011;13395;50.752;4.268;2023-01-29T03:13:58;74.93;;;33.10;;
25481;SDS011;13395;50.752;4.268;2023-01-29T03:16:51;76.82;;;32.30;;
25481;SDS011;13395;50.752;4.268;2023-01-29T03:18:56;75.65;;;31.95;;
25481;SDS011;13395;50.752;4.268;2023-01-29T03:21:30;72.53;;;31.08;;
25481;SDS011;13395;50.752;4.268;2023-01-29T03:24:17;75.38;;;31.27;;
25481;SDS011;13395;50.752;4.268;2023-01-29T03:27:09;77.53;;;31.50;;
25481;SDS011;13395;50.752;4.268;2023-01-29T03:29:54;66.55;;;30.05;;
25481;SDS011;13395;50.752;4.268;2023-01-29T03:32:41;79.15;;;29.90;;
25481;SDS011;13395;50.752;4.268;2023-01-29T03:35:08;69.28;;;31.67;;
25481;SDS011;13395;50.752;4.268;2023-01-29T03:37:37;81.95;;;31.70;;
25481;SDS011;13395;50.752;4.268;2023-01-29T03:40:10;71.32;;;29.52;;
25481;SDS011;13395;50.752;4.268;2023-01-29T03:53:57;73.32;;;31.67;;
25481;SDS011;13395;50.752;4.268;2023-01-29T03:56:48;77.05;;;30.70;;
25481;SDS011;13395;50.752;4.268;2023-01-29T04:05:16;73.80;;;28.73;;
25481;SDS011;13395;50.752;4.268;2023-01-29T04:07:44;68.57;;;31.08;;
25481;SDS011;13395;50.752;4.268;2023-01-29T04:10:13;68.85;;;30.25;;
25481;SDS011;13395;50.752;4.268;2023-01-29T04:12:47;69.25;;;29.23;;
25481;SDS011;13395;50.752;4.268;2023-01-29T04:15:20;67.35;;;28.25;;
25481;SDS011;13395;50.752;4.268;2023-01-29T04:17:51;63.95;;;28.08;;
25481;SDS011;13395;50.752;4.268;2023-01-29T04:20:17;70.50;;;28.25;;
25481;SDS011;13395;50.752;4.268;2023-01-29T04:22:44;68.05;;;28.15;;
25481;SDS011;13395;50.752;4.268;2023-01-29T04:25:15;69.32;;;28.23;;
25481;SDS011;13395;50.752;4.268;2023-01-29T04:36:06;72.07;;;28.23;;
25481;SDS011;13395;50.752;4.268;2023-01-29T04:45:25;70.72;;;28.98;;
25481;SDS011;13395;50.752;4.268;2023-01-29T04:47:46;65.55;;;27.25;;
25481;SDS011;13395;50.752;4.268;2023-01-29T04:50:35;70.05;;;27.70;;
25481;SDS011;13395;50.752;4.268;2023-01-29T04:55:40;78.03;;;28.88;;
25481;SDS011;13395;50.752;4.268;2023-01-29T05:01:12;76.43;;;29.70;;
25481;SDS011;13395;50.752;4.268;2023-01-29T05:03:40;72.95;;;28.50;;
25481;SDS011;13395;50.752;4.268;2023-01-29T05:06:08;68.93;;;28.95;;
25481;SDS011;13395;50.752;4.268;2023-01-29T05:08:36;71.00;;;28.20;;
25481;SDS011;13395;50.752;4.268;2023-01-29T05:11:03;78.22;;;28.80;;
25481;SDS011;13395;50.752;4.268;2023-01-29T05:13:29;76.82;;;29.27;;
25481;SDS011;13395;50.752;4.268;2023-01-29T05:18:38;62.45;;;28.17;;
25481;SDS011;13395;50.752;4.268;2023-01-29T05:21:05;83.38;;;30.00;;
25481;SDS011;13395;50.752;4.268;2023-01-29T05:23:32;79.22;;;30.92;;
25481;SDS011;13395;50.752;4.268;2023-01-29T05:25:58;68.20;;;28.17;;
25481;SDS011;13395;50.752;4.268;2023-01-29T05:28:24;75.97;;;29.23;;
25481;SDS011;13395;50.752;4.268;2023-01-29T05:30:50;73.13;;;29.67;;
25481;SDS011;13395;50.752;4.268;2023-01-29T05:33:28;72.95;;;29.58;;
25481;SDS011;13395;50.752;4.268;2023-01-29T05:35:55;74.75;;;29.73;;
25481;SDS011;13395;50.752;4.268;2023-01-29T05:38:23;65.07;;;29.10;;
25481;SDS011;13395;50.752;4.268;2023-01-29T05:40:49;72.18;;;30.25;;
25481;SDS011;13395;50.752;4.268;2023-01-29T05:43:16;75.55;;;30.92;;
25481;SDS011;13395;50.752;4.268;2023-01-29T05:45:50;68.20;;;28.83;;
25481;SDS011;13395;50.752;4.268;2023-01-29T05:48:20;69.95;;;28.60;;
25481;SDS011;13395;50.752;4.268;2023-01-29T05:50:46;77.60;;;27.60;;
25481;SDS011;13395;50.752;4.268;2023-01-29T05:53:12;68.13;;;29.77;;
25481;SDS011;13395;50.752;4.268;2023-01-29T05:55:37;68.07;;;28.02;;
25481;SDS011;13395;50.752;4.268;2023-01-29T05:58:03;70.68;;;29.58;;
25481;SDS011;13395;50.752;4.268;2023-01-29T06:00:28;76.22;;;29.73;;
25481;SDS011;13395;50.752;4.268;2023-01-29T06:02:54;80.32;;;29.55;;
25481;SDS011;13395;50.752;4.268;2023-01-29T06:05:20;76.47;;;30.42;;
25481;SDS011;13395;50.752;4.268;2023-01-29T06:07:46;73.28;;;28.92;;
25481;SDS011;13395;50.752;4.268;2023-01-29T06:10:15;75.78;;;31.13;;
25481;SDS011;13395;50.752;4.268;2023-01-29T06:12:42;71.93;;;28.95;;
25481;SDS011;13395;50.752;4.268;2023-01-29T06:15:08;80.18;;;29.98;;
25481;SDS011;13395;50.752;4.268;2023-01-29T06:17:35;75.15;;;28.95;;
25481;SDS011;13395;50.752;4.268;2023-01-29T06:20:01;79.43;;;29.98;;
25481;SDS011;13395;50.752;4.268;2023-01-29T06:22:26;80.75;;;31.52;;
25481;SDS011;13395;50.752;4.268;2023-01-29T06:24:52;80.63;;;30.08;;
25481;SDS011;13395;50.752;4.268;2023-01-29T06:27:18;75.63;;;28.98;;
25481;SDS011;13395;50.752;4.268;2023-01-29T06:29:43;72.35;;;30.52;;
25481;SDS011;13395;50.752;4.268;2023-01-29T06:32:09;74.97;;;29.45;;
25481;SDS011;13395;50.752;4.268;2023-01-29T06:34:34;70.72;;;29.42;;
25481;SDS011;13395;50.752;4.268;2023-01-29T06:37:00;75.72;;;30.00;;
25481;SDS011;13395;50.752;4.268;2023-01-29T06:39:26;78.13;;;29.23;;
25481;SDS011;13395;50.752;4.268;2023-01-29T06:41:51;73.95;;;29.48;;
25481;SDS011;13395;50.752;4.268;2023-01-29T06:44:17;80.53;;;30.40;;
25481;SDS011;13395;50.752;4.268;2023-01-29T06:46:42;75.70;;;28.95;;
25481;SDS011;13395;50.752;4.268;2023-01-29T06:49:08;68.65;;;29.33;;
25481;SDS011;13395;50.752;4.268;2023-01-29T06:51:34;75.30;;;30.75;;
25481;SDS011;13395;50.752;4.268;2023-01-29T06:53:59;70.55;;;28.10;;
25481;SDS011;13395;50.752;4.268;2023-01-29T06:56:25;70.75;;;28.15;;
25481;SDS011;13395;50.752;4.268;2023-01-29T06:58:50;80.00;;;29.73;;
25481;SDS011;13395;50.752;4.268;2023-01-29T07:01:16;81.63;;;31.73;;
25481;SDS011;13395;50.752;4.268;2023-01-29T07:03:42;79.90;;;32.00;;
25481;SDS011;13395;50.752;4.268;2023-01-29T07:06:08;82.82;;;31.10;;
25481;SDS011;13395;50.752;4.268;2023-01-29T07:08:38;77.45;;;30.80;;
25481;SDS011;13395;50.752;4.268;2023-01-29T07:11:04;82.53;;;29.67;;
25481;SDS011;13395;50.752;4.268;2023-01-29T07:13:30;76.03;;;31.35;;
25481;SDS011;13395;50.752;4.268;2023-01-29T07:16:02;84.78;;;32.30;;
25481;SDS011;13395;50.752;4.268;2023-01-29T07:18:29;84.60;;;33.13;;
25481;SDS011;13395;50.752;4.268;2023-01-29T07:20:55;81.32;;;31.50;;
25481;SDS011;13395;50.752;4.268;2023-01-29T07:23:21;74.00;;;30.15;;
25481;SDS011;13395;50.752;4.268;2023-01-29T07:25:47;77.05;;;33.05;;
25481;SDS011;13395;50.752;4.268;2023-01-29T07:28:14;82.45;;;34.47;;
25481;SDS011;13395;50.752;4.268;2023-01-29T07:30:41;82.18;;;34.67;;
25481;SDS011;13395;50.752;4.268;2023-01-29T07:33:07;76.30;;;31.00;;
25481;SDS011;13395;50.752;4.268;2023-01-29T07:35:37;78.35;;;31.80;;
25481;SDS011;13395;50.752;4.268;2023-01-29T07:38:04;85.72;;;32.63;;
25481;SDS011;13395;50.752;4.268;2023-01-29T07:40:33;79.95;;;31.40;;
25481;SDS011;13395;50.752;4.268;2023-01-29T07:42:59;83.50;;;31.98;;
25481;SDS011;13395;50.752;4.268;2023-01-29T07:45:27;80.60;;;32.30;;
25481;SDS011;13395;50.752;4.268;2023-01-29T07:47:53;85.78;;;32.60;;
25481;SDS011;13395;50.752;4.268;2023-01-29T07:50:21;87.32;;;33.78;;
25481;SDS011;13395;50.752;4.268;2023-01-29T07:52:47;86.70;;;33.80;;
25481;SDS011;13395;50.752;4.268;2023-01-29T07:55:13;79.13;;;32.95;;
25481;SDS011;13395;50.752;4.268;2023-01-29T07:57:40;86.22;;;32.17;;
25481;SDS011;13395;50.752;4.268;2023-01-29T08:00:06;83.38;;;34.83;;
25481;SDS011;13395;50.752;4.268;2023-01-29T08:02:32;82.70;;;32.42;;
25481;SDS011;13395;50.752;4.268;2023-01-29T08:04:58;75.72;;;31.85;;
25481;SDS011;13395;50.752;4.268;2023-01-29T08:07:23;86.55;;;35.72;;
25481;SDS011;13395;50.752;4.268;2023-01-29T08:09:49;82.90;;;33.65;;
25481;SDS011;13395;50.752;4.268;2023-01-29T08:12:14;81.85;;;34.20;;
25481;SDS011;13395;50.752;4.268;2023-01-29T08:14:40;73.53;;;30.83;;
25481;SDS011;13395;50.752;4.268;2023-01-29T08:17:06;72.90;;;32.25;;
25481;SDS011;13395;50.752;4.268;2023-01-29T08:19:31;86.90;;;35.13;;
25481;SDS011;13395;50.752;4.268;2023-01-29T08:21:57;82.35;;;32.25;;
25481;SDS011;13395;50.752;4.268;2023-01-29T08:24:24;78.65;;;32.05;;
25481;SDS011;13395;50.752;4.268;2023-01-29T08:26:50;82.80;;;33.78;;
25481;SDS011;13395;50.752;4.268;2023-01-29T08:29:16;78.07;;;33.63;;
25481;SDS011;13395;50.752;4.268;2023-01-29T08:31:41;74.35;;;30.95;;
25481;SDS011;13395;50.752;4.268;2023-01-29T08:34:07;85.15;;;34.72;;
25481;SDS011;13395;50.752;4.268;2023-01-29T08:36:33;74.18;;;30.70;;
25481;SDS011;13395;50.752;4.268;2023-01-29T08:38:59;75.53;;;32.90;;
25481;SDS011;13395;50.752;4.268;2023-01-29T08:41:24;79.35;;;31.85;;
25481;SDS011;13395;50.752;4.268;2023-01-29T08:43:50;80.88;;;32.70;;
25481;SDS011;13395;50.752;4.268;2023-01-29T08:46:15;79.30;;;30.27;;
25481;SDS011;13395;50.752;4.268;2023-01-29T08:48:41;77.80;;;32.78;;
25481;SDS011;13395;50.752;4.268;2023-01-29T08:51:07;81.57;;;32.42;;
25481;SDS011;13395;50.752;4.268;2023-01-29T08:53:33;70.30;;;30.17;;
25481;SDS011;13395;50.752;4.268;2023-01-29T08:55:58;77.15;;;32.45;;
25481;SDS011;13395;50.752;4.268;2023-01-29T08:58:24;80.15;;;30.88;;
25481;SDS011;13395;50.752;4.268;2023-01-29T09:00:50;82.78;;;33.35;;
25481;SDS011;13395;50.752;4.268;2023-01-29T09:03:15;77.10;;;32.80;;
25481;SDS011;13395;50.752;4.268;2023-01-29T09:05:41;73.80;;;32.20;;
25481;SDS011;13395;50.752;4.268;2023-01-29T09:08:07;79.45;;;33.53;;
25481;SDS011;13395;50.752;4.268;2023-01-29T09:10:33;78.70;;;33.38;;
25481;SDS011;13395;50.752;4.268;2023-01-29T09:13:00;72.00;;;29.75;;
25481;SDS011;13395;50.752;4.268;2023-01-29T09:15:25;71.10;;;30.10;;
25481;SDS011;13395;50.752;4.268;2023-01-29T09:17:51;72.78;;;31.80;;
25481;SDS011;13395;50.752;4.268;2023-01-29T09:20:17;64.03;;;28.38;;
25481;SDS011;13395;50.752;4.268;2023-01-29T09:22:44;69.78;;;28.60;;
25481;SDS011;13395;50.752;4.268;2023-01-29T09:25:10;70.10;;;28.65;;
25481;SDS011;13395;50.752;4.268;2023-01-29T09:27:36;70.63;;;29.60;;
25481;SDS011;13395;50.752;4.268;2023-01-29T09:30:03;64.38;;;29.92;;
25481;SDS011;13395;50.752;4.268;2023-01-29T09:32:29;66.90;;;29.42;;
25481;SDS011;13395;50.752;4.268;2023-01-29T09:34:56;71.07;;;30.98;;
25481;SDS011;13395;50.752;4.268;2023-01-29T09:37:22;71.88;;;30.58;;
25481;SDS011;13395;50.752;4.268;2023-01-29T09:39:50;62.15;;;27.73;;
25481;SDS011;13395;50.752;4.268;2023-01-29T09:45:18;67.65;;;28.63;;
25481;SDS011;13395;50.752;4.268;2023-01-29T09:47:48;69.10;;;31.67;;
25481;SDS011;13395;50.752;4.268;2023-01-29T09:55:28;66.20;;;28.50;;
25481;SDS011;13395;50.752;4.268;2023-01-29T10:00:45;63.22;;;27.85;;
25481;SDS011;13395;50.752;4.268;2023-01-29T10:03:38;61.30;;;26.70;;
25481;SDS011;13395;50.752;4.268;2023-01-29T10:09:30;66.30;;;28.35;;
25481;SDS011;13395;50.752;4.268;2023-01-29T10:12:24;64.75;;;27.48;;
25481;SDS011;13395;50.752;4.268;2023-01-29T10:15:09;63.72;;;25.85;;
25481;SDS011;13395;50.752;4.268;2023-01-29T10:17:56;63.58;;;27.35;;
25481;SDS011;13395;50.752;4.268;2023-01-29T10:20:56;66.07;;;28.85;;
25481;SDS011;13395;50.752;4.268;2023-01-29T10:23:48;68.15;;;28.90;;
25481;SDS011;13395;50.752;4.268;2023-01-29T10:26:19;60.78;;;25.23;;
25481;SDS011;13395;50.752;4.268;2023-01-29T10:28:48;66.18;;;28.50;;
25481;SDS011;13395;50.752;4.268;2023-01-29T10:31:30;59.38;;;25.67;;
25481;SDS011;13395;50.752;4.268;2023-01-29T10:34:02;60.15;;;24.55;;
25481;SDS011;13395;50.752;4.268;2023-01-29T10:36:41;55.95;;;24.63;;
25481;SDS011;13395;50.752;4.268;2023-01-29T10:53:08;58.65;;;25.70;;
25481;SDS011;13395;50.752;4.268;2023-01-29T11:01:33;58.25;;;25.83;;
25481;SDS011;13395;50.752;4.268;2023-01-29T11:04:02;60.65;;;28.40;;
25481;SDS011;13395;50.752;4.268;2023-01-29T11:06:31;66.53;;;26.15;;
25481;SDS011;13395;50.752;4.268;2023-01-29T11:11:53;55.05;;;23.85;;
25481;SDS011;13395;50.752;4.268;2023-01-29T11:14:44;50.70;;;24.58;;
25481;SDS011;13395;50.752;4.268;2023-01-29T11:17:30;52.22;;;24.60;;
25481;SDS011;13395;50.752;4.268;2023-01-29T11:19:56;54.85;;;25.02;;
25481;SDS011;13395;50.752;4.268;2023-01-29T11:22:26;47.40;;;22.83;;
25481;SDS011;13395;50.752;4.268;2023-01-29T11:27:46;43.70;;;22.02;;
25481;SDS011;13395;50.752;4.268;2023-01-29T11:30:25;49.53;;;21.65;;
25481;SDS011;13395;50.752;4.268;2023-01-29T11:32:55;50.83;;;22.98;;
25481;SDS011;13395;50.752;4.268;2023-01-29T11:35:23;47.75;;;24.35;;
25481;SDS011;13395;50.752;4.268;2023-01-29T11:37:49;43.83;;;21.10;;
25481;SDS011;13395;50.752;4.268;2023-01-29T11:42:44;46.55;;;22.58;;
25481;SDS011;13395;50.752;4.268;2023-01-29T11:47:54;50.25;;;23.58;;
25481;SDS011;13395;50.752;4.268;2023-01-29T11:50:30;49.58;;;24.13;;
25481;SDS011;13395;50.752;4.268;2023-01-29T11:52:58;44.20;;;21.20;;
25481;SDS011;13395;50.752;4.268;2023-01-29T11:55:25;50.70;;;21.73;;
25481;SDS011;13395;50.752;4.268;2023-01-29T12:00:40;46.60;;;22.10;;
25481;SDS011;13395;50.752;4.268;2023-01-29T12:05:56;45.60;;;22.13;;
25481;SDS011;13395;50.752;4.268;2023-01-29T12:08:22;38.78;;;18.15;;
25481;SDS011;13395;50.752;4.268;2023-01-29T12:10:48;43.95;;;19.90;;
25481;SDS011;13395;50.752;4.268;2023-01-29T12:13:17;33.88;;;16.75;;
25481;SDS011;13395;50.752;4.268;2023-01-29T12:15:50;40.38;;;18.20;;
25481;SDS011;13395;50.752;4.268;2023-01-29T12:18:35;35.90;;;18.70;;
25481;SDS011;13395;50.752;4.268;2023-01-29T12:21:04;38.17;;;19.90;;
25481;SDS011;13395;50.752;4.268;2023-01-29T12:26:33;38.95;;;19.05;;
25481;SDS011;13395;50.752;4.268;2023-01-29T12:29:20;41.40;;;21.23;;
25481;SDS011;13395;50.752;4.268;2023-01-29T12:34:29;31.08;;;18.83;;
25481;SDS011;13395;50.752;4.268;2023-01-29T12:36:59;32.97;;;15.85;;
25481;SDS011;13395;50.752;4.268;2023-01-29T12:39:35;38.92;;;16.88;;
25481;SDS011;13395;50.752;4.268;2023-01-29T12:42:03;28.65;;;16.05;;
25481;SDS011;13395;50.752;4.268;2023-01-29T12:44:35;30.02;;;16.08;;
25481;SDS011;13395;50.752;4.268;2023-01-29T12:49:51;39.40;;;17.33;;
25481;SDS011;13395;50.752;4.268;2023-01-29T12:52:21;34.03;;;16.27;;
25481;SDS011;13395;50.752;4.268;2023-01-29T12:55:02;36.53;;;16.95;;
25481;SDS011;13395;50.752;4.268;2023-01-29T13:00:20;25.70;;;13.75;;
25481;SDS011;13395;50.752;4.268;2023-01-29T13:08:07;27.90;;;14.85;;
25481;SDS011;13395;50.752;4.268;2023-01-29T13:10:50;32.45;;;16.85;;
25481;SDS011;13395;50.752;4.268;2023-01-29T13:15:43;25.52;;;14.80;;
25481;SDS011;13395;50.752;4.268;2023-01-29T13:18:31;27.52;;;14.23;;
25481;SDS011;13395;50.752;4.268;2023-01-29T13:21:22;29.88;;;14.75;;
25481;SDS011;13395;50.752;4.268;2023-01-29T13:24:13;25.10;;;15.70;;
25481;SDS011;13395;50.752;4.268;2023-01-29T13:26:39;35.33;;;15.70;;
25481;SDS011;13395;50.752;4.268;2023-01-29T13:29:13;27.77;;;15.40;;
25481;SDS011;13395;50.752;4.268;2023-01-29T13:31:44;30.08;;;16.15;;
25481;SDS011;13395;50.752;4.268;2023-01-29T13:36:45;26.52;;;14.20;;
25481;SDS011;13395;50.752;4.268;2023-01-29T13:39:21;29.38;;;14.85;;
25481;SDS011;13395;50.752;4.268;2023-01-29T13:41:54;30.75;;;14.57;;
25481;SDS011;13395;50.752;4.268;2023-01-29T13:44:23;33.47;;;14.55;;
25481;SDS011;13395;50.752;4.268;2023-01-29T13:46:53;33.92;;;16.52;;
25481;SDS011;13395;50.752;4.268;2023-01-29T13:49:23;31.08;;;15.63;;
25481;SDS011;13395;50.752;4.268;2023-01-29T13:54:52;35.67;;;17.60;;
25481;SDS011;13395;50.752;4.268;2023-01-29T14:08:00;33.05;;;17.10;;
25481;SDS011;13395;50.752;4.268;2023-01-29T14:10:27;33.17;;;16.83;;
25481;SDS011;13395;50.752;4.268;2023-01-29T14:15:32;38.47;;;15.98;;
25481;SDS011;13395;50.752;4.268;2023-01-29T14:20:37;34.45;;;18.58;;
25481;SDS011;13395;50.752;4.268;2023-01-29T14:25:58;67.50;;;26.13;;
25481;SDS011;13395;50.752;4.268;2023-01-29T14:28:25;46.15;;;21.92;;
25481;SDS011;13395;50.752;4.268;2023-01-29T14:30:53;51.35;;;23.27;;
25481;SDS011;13395;50.752;4.268;2023-01-29T14:33:23;42.90;;;21.52;;
25481;SDS011;13395;50.752;4.268;2023-01-29T14:35:57;54.60;;;24.85;;
25481;SDS011;13395;50.752;4.268;2023-01-29T14:38:27;41.78;;;20.23;;
25481;SDS011;13395;50.752;4.268;2023-01-29T14:41:04;43.72;;;20.75;;
25481;SDS011;13395;50.752;4.268;2023-01-29T14:43:45;42.88;;;21.88;;
25481;SDS011;13395;50.752;4.268;2023-01-29T14:48:58;52.75;;;22.77;;
25481;SDS011;13395;50.752;4.268;2023-01-29T14:51:24;41.05;;;20.85;;
25481;SDS011;13395;50.752;4.268;2023-01-29T15:00:12;51.10;;;23.58;;
25481;SDS011;13395;50.752;4.268;2023-01-29T15:02:24;49.43;;;23.00;;
25481;SDS011;13395;50.752;4.268;2023-01-29T15:05:01;52.15;;;23.70;;
25481;SDS011;13395;50.752;4.268;2023-01-29T15:07:31;47.53;;;22.65;;
25481;SDS011;13395;50.752;4.268;2023-01-29T15:10:05;46.63;;;21.50;;
25481;SDS011;13395;50.752;4.268;2023-01-29T15:13:01;46.95;;;22.10;;
25481;SDS011;13395;50.752;4.268;2023-01-29T15:15:36;55.90;;;24.35;;
25481;SDS011;13395;50.752;4.268;2023-01-29T15:20:37;51.88;;;23.65;;
25481;SDS011;13395;50.752;4.268;2023-01-29T15:23:26;55.85;;;25.35;;
25481;SDS011;13395;50.752;4.268;2023-01-29T15:25:51;54.45;;;24.38;;
25481;SDS011;13395;50.752;4.268;2023-01-29T15:28:20;45.70;;;20.85;;
25481;SDS011;13395;50.752;4.268;2023-01-29T15:30:49;55.63;;;23.38;;
25481;SDS011;13395;50.752;4.268;2023-01-29T15:33:19;53.60;;;23.65;;
25481;SDS011;13395;50.752;4.268;2023-01-29T15:35:45;54.60;;;24.70;;
25481;SDS011;13395;50.752;4.268;2023-01-29T15:38:18;53.78;;;24.73;;
25481;SDS011;13395;50.752;4.268;2023-01-29T15:40:55;49.22;;;23.65;;
25481;SDS011;13395;50.752;4.268;2023-01-29T15:43:23;58.10;;;24.17;;
25481;SDS011;13395;50.752;4.268;2023-01-29T15:45:55;60.85;;;25.58;;
25481;SDS011;13395;50.752;4.268;2023-01-29T15:48:29;54.55;;;21.77;;
25481;SDS011;13395;50.752;4.268;2023-01-29T15:50:58;57.38;;;25.35;;
25481;SDS011;13395;50.752;4.268;2023-01-29T15:53:27;50.10;;;24.65;;
25481;SDS011;13395;50.752;4.268;2023-01-29T15:55:58;43.67;;;20.37;;
25481;SDS011;13395;50.752;4.268;2023-01-29T15:58:29;53.50;;;23.73;;
25481;SDS011;13395;50.752;4.268;2023-01-29T16:00:56;52.65;;;23.58;;
25481;SDS011;13395;50.752;4.268;2023-01-29T16:03:24;54.70;;;24.38;;
25481;SDS011;13395;50.752;4.268;2023-01-29T16:05:52;59.25;;;24.98;;
25481;SDS011;13395;50.752;4.268;2023-01-29T16:08:22;50.30;;;23.08;;
25481;SDS011;13395;50.752;4.268;2023-01-29T16:10:52;56.25;;;24.45;;
25481;SDS011;13395;50.752;4.268;2023-01-29T16:13:21;61.00;;;25.52;;
25481;SDS011;13395;50.752;4.268;2023-01-29T16:15:53;58.80;;;26.80;;
25481;SDS011;13395;50.752;4.268;2023-01-29T16:18:19;55.35;;;24.20;;
25481;SDS011;13395;50.752;4.268;2023-01-29T16:20:54;55.67;;;24.95;;
25481;SDS011;13395;50.752;4.268;2023-01-29T16:23:23;62.45;;;27.13;;
25481;SDS011;13395;50.752;4.268;2023-01-29T16:25:51;53.17;;;24.33;;
25481;SDS011;13395;50.752;4.268;2023-01-29T16:28:19;64.05;;;26.30;;
25481;SDS011;13395;50.752;4.268;2023-01-29T16:30:45;54.70;;;23.00;;
25481;SDS011;13395;50.752;4.268;2023-01-29T16:33:11;63.22;;;28.73;;
25481;SDS011;13395;50.752;4.268;2023-01-29T16:35:40;69.57;;;27.92;;
25481;SDS011;13395;50.752;4.268;2023-01-29T16:38:15;55.47;;;25.60;;
25481;SDS011;13395;50.752;4.268;2023-01-29T16:41:07;56.42;;;22.63;;
25481;SDS011;13395;50.752;4.268;2023-01-29T16:43:53;63.22;;;24.92;;
25481;SDS011;13395;50.752;4.268;2023-01-29T16:51:53;61.47;;;25.67;;
25481;SDS011;13395;50.752;4.268;2023-01-29T16:54:22;58.63;;;24.40;;
25481;SDS011;13395;50.752;4.268;2023-01-29T16:56:50;56.15;;;24.58;;
25481;SDS011;13395;50.752;4.268;2023-01-29T16:59:32;63.33;;;24.95;;
25481;SDS011;13395;50.752;4.268;2023-01-29T17:02:01;61.28;;;25.63;;
25481;SDS011;13395;50.752;4.268;2023-01-29T17:04:27;53.17;;;23.45;;
25481;SDS011;13395;50.752;4.268;2023-01-29T17:06:54;58.40;;;25.83;;
25481;SDS011;13395;50.752;4.268;2023-01-29T17:09:29;55.20;;;23.88;;
25481;SDS011;13395;50.752;4.268;2023-01-29T17:12:05;58.33;;;25.60;;
25481;SDS011;13395;50.752;4.268;2023-01-29T17:14:33;54.20;;;25.60;;
25481;SDS011;13395;50.752;4.268;2023-01-29T17:17:01;69.88;;;29.25;;
25481;SDS011;13395;50.752;4.268;2023-01-29T17:19:31;54.03;;;22.55;;
25481;SDS011;13395;50.752;4.268;2023-01-29T17:21:57;59.65;;;26.02;;
25481;SDS011;13395;50.752;4.268;2023-01-29T17:24:24;52.65;;;23.75;;
25481;SDS011;13395;50.752;4.268;2023-01-29T17:26:50;54.20;;;24.45;;
25481;SDS011;13395;50.752;4.268;2023-01-29T17:29:17;48.42;;;22.88;;
25481;SDS011;13395;50.752;4.268;2023-01-29T17:31:48;50.30;;;21.67;;
25481;SDS011;13395;50.752;4.268;2023-01-29T17:34:14;47.53;;;22.13;;